createdAt,value
2018-11-14T00:01:54.560Z,99143.81
2018-11-14T00:04:26.525Z,99175.42
2018-11-14T00:06:58.976Z,99225.80
2018-11-14T00:09:46.435Z,99258.12
2018-11-14T00:12:18.522Z,99251.54
2018-11-14T00:14:50.517Z,99232.31
2018-11-14T00:17:22.357Z,99190.84
2018-11-14T00:19:54.638Z,99165.74
2018-11-14T00:22:26.259Z,99171.27
2018-11-14T00:24:58.220Z,99165.03
2018-11-14T00:27:30.252Z,99167.75
2018-11-14T00:30:02.051Z,99161.61
2018-11-14T00:32:34.098Z,99168.08
2018-11-14T00:35:06.077Z,99171.09
2018-11-14T00:37:38.604Z,99180.17
2018-11-14T00:40:12.698Z,99196.92
2018-11-14T00:42:45.985Z,99204.50
2018-11-14T00:45:19.268Z,99201.27
2018-11-14T00:47:51.633Z,99194.57
2018-11-14T00:50:24.020Z,99190.86
2018-11-14T00:52:56.551Z,99175.75
2018-11-14T00:55:28.448Z,99180.41
2018-11-14T00:58:00.306Z,99198.11
2018-11-14T01:00:32.475Z,99210.64
2018-11-14T01:03:04.445Z,99198.98
2018-11-14T01:05:36.243Z,99194.83
2018-11-14T01:08:09.092Z,99189.95
2018-11-14T01:10:40.842Z,99199.56
2018-11-14T01:13:12.894Z,99213.64
2018-11-14T01:15:45.055Z,99218.16
2018-11-14T01:18:17.301Z,99214.30
2018-11-14T01:20:49.273Z,99222.53
2018-11-14T01:23:21.593Z,99234.13
2018-11-14T01:25:53.475Z,99245.63
2018-11-14T01:28:26.152Z,99251.09
2018-11-14T01:30:58.394Z,99276.20
2018-11-14T01:33:30.361Z,99334.19
2018-11-14T01:36:02.043Z,99397.71
2018-11-14T01:38:34.216Z,99434.34
2018-11-14T01:41:05.786Z,99424.84
2018-11-14T01:43:37.416Z,99419.39
2018-11-14T01:46:08.929Z,99448.93
2018-11-14T01:48:41.474Z,99426.60
2018-11-14T01:51:12.995Z,99438.70
2018-11-14T01:53:45.100Z,99429.67
2018-11-14T01:56:16.774Z,99443.48
2018-11-14T01:58:48.338Z,99454.11
2018-11-14T02:01:19.863Z,99440.31
2018-11-14T02:03:51.709Z,99435.38
2018-11-14T02:06:23.431Z,99433.50
2018-11-14T02:08:55.409Z,99438.70
2018-11-14T02:11:27.622Z,99445.11
2018-11-14T02:13:59.495Z,99455.34
2018-11-14T02:16:30.994Z,99449.40
2018-11-14T02:19:02.840Z,99458.19
2018-11-14T02:21:35.263Z,99471.79
2018-11-14T02:24:07.070Z,99487.77
2018-11-14T02:26:38.607Z,99494.73
2018-11-14T02:29:10.343Z,99490.87
2018-11-14T02:31:41.951Z,99486.45
2018-11-14T02:34:14.657Z,99476.28
2018-11-14T02:36:46.329Z,99472.91
2018-11-14T02:39:18.280Z,99463.88
2018-11-14T02:41:51.867Z,99461.61
2018-11-14T02:44:23.535Z,99466.58
2018-11-14T02:46:55.135Z,99470.47
2018-11-14T02:49:26.892Z,99461.24
2018-11-14T02:51:58.517Z,99451.44
2018-11-14T02:54:30.737Z,99442.01
2018-11-14T02:57:02.471Z,99434.02
2018-11-14T02:59:34.174Z,99416.35
2018-11-14T03:02:06.851Z,99406.13
2018-11-14T03:04:38.637Z,99396.28
2018-11-14T03:07:10.280Z,99390.52
2018-11-14T03:09:43.639Z,99384.80
2018-11-14T03:12:15.254Z,99377.20
2018-11-14T03:14:47.064Z,99383.67
2018-11-14T03:17:18.807Z,99377.19
2018-11-14T03:19:50.386Z,99375.45
2018-11-14T03:22:22.043Z,99370.67
2018-11-14T03:24:53.625Z,99378.08
2018-11-14T03:27:25.160Z,99371.08
2018-11-14T03:29:56.879Z,99371.85
2018-11-14T03:32:30.103Z,99372.31
2018-11-14T03:35:02.162Z,99377.20
2018-11-14T03:37:33.952Z,99384.25
2018-11-14T03:40:06.623Z,99384.17
2018-11-14T03:42:38.128Z,99383.27
2018-11-14T03:45:11.677Z,99380.92
2018-11-14T03:47:43.772Z,99385.05
2018-11-14T03:50:15.398Z,99384.48
2018-11-14T03:52:46.974Z,99389.97
2018-11-14T03:55:19.223Z,99395.03
2018-11-14T03:57:50.706Z,99393.21
2018-11-14T04:00:22.330Z,99396.63
2018-11-14T04:02:54.828Z,99394.84
2018-11-14T04:05:26.548Z,99396.16
2018-11-14T04:07:58.401Z,99396.73
2018-11-14T04:10:31.006Z,99394.92
2018-11-14T04:13:02.825Z,99399.07
2018-11-14T04:15:34.748Z,99398.87
2018-11-14T04:18:06.277Z,99403.30
2018-11-14T04:20:37.975Z,99401.48
2018-11-14T04:23:09.706Z,99406.33
2018-11-14T04:25:42.170Z,99405.22
2018-11-14T04:28:13.832Z,99407.34
2018-11-14T04:30:47.076Z,99412.20
2018-11-14T04:33:23.707Z,99404.23
2018-11-14T04:35:59.788Z,99404.66
2018-11-14T04:38:34.037Z,99403.78
2018-11-14T04:41:06.126Z,99392.73
2018-11-14T04:43:37.886Z,99396.01
2018-11-14T04:46:09.702Z,99394.84
2018-11-14T04:48:42.347Z,99392.26
2018-11-14T04:51:14.534Z,99393.00
2018-11-14T04:53:46.561Z,99390.25
2018-11-14T04:56:19.237Z,99392.30
2018-11-14T04:58:52.200Z,99376.91
2018-11-14T05:01:27.423Z,99382.61
2018-11-14T05:04:00.154Z,99377.55
2018-11-14T05:06:31.930Z,99378.39
2018-11-14T05:09:07.114Z,99377.80
2018-11-14T05:11:39.174Z,99381.39
2018-11-14T05:14:11.193Z,99388.94
2018-11-14T05:16:43.112Z,99386.93
2018-11-14T05:19:15.375Z,99387.63
2018-11-14T05:21:47.554Z,99382.61
2018-11-14T05:24:19.200Z,99383.09
2018-11-14T05:26:51.337Z,99381.33
2018-11-14T05:29:23.880Z,99386.02
2018-11-14T05:31:55.465Z,99378.09
2018-11-14T05:34:27.294Z,99381.69
2018-11-14T05:37:05.714Z,99380.41
2018-11-14T05:39:37.261Z,99384.48
2018-11-14T05:42:09.493Z,99388.09
2018-11-14T05:44:41.738Z,99386.16
2018-11-14T05:47:13.653Z,99393.13
2018-11-14T05:49:45.353Z,99400.22
2018-11-14T05:52:16.971Z,99395.30
2018-11-14T05:54:49.538Z,99389.52
2018-11-14T05:57:21.650Z,99385.32
2018-11-14T05:59:53.147Z,99387.05
2018-11-14T06:02:24.883Z,99376.75
2018-11-14T06:04:56.700Z,99372.08
2018-11-14T06:07:28.356Z,99380.83
2018-11-14T06:09:59.939Z,99374.81
2018-11-14T06:12:32.462Z,99376.48
2018-11-14T06:15:04.225Z,99373.00
2018-11-14T06:17:36.057Z,99373.78
2018-11-14T06:20:08.745Z,99365.92
2018-11-14T06:22:40.522Z,99369.27
2018-11-14T06:25:28.575Z,99359.86
2018-11-14T06:28:01.129Z,99357.39
2018-11-14T06:30:33.113Z,99351.38
2018-11-14T06:33:06.187Z,99345.70
2018-11-14T06:35:37.958Z,99333.08
2018-11-14T06:38:09.804Z,99333.11
2018-11-14T06:40:43.754Z,99329.50
2018-11-14T06:43:16.011Z,99323.58
2018-11-14T06:45:47.641Z,99324.38
2018-11-14T06:48:19.499Z,99313.13
2018-11-14T06:50:51.245Z,99309.95
2018-11-14T06:53:23.070Z,99305.42
2018-11-14T06:55:54.867Z,99296.44
2018-11-14T06:58:28.123Z,99296.77
2018-11-14T07:00:59.956Z,99288.62
2018-11-14T07:03:32.008Z,99283.85
2018-11-14T07:06:03.972Z,99276.16
2018-11-14T07:08:36.103Z,99278.56
2018-11-14T07:11:08.355Z,99267.95
2018-11-14T07:13:40.807Z,99262.02
2018-11-14T07:16:12.501Z,99258.31
2018-11-14T07:18:44.405Z,99256.09
2018-11-14T07:21:16.246Z,99246.86
2018-11-14T07:23:48.140Z,99249.58
2018-11-14T07:26:20.143Z,99237.75
2018-11-14T07:28:52.090Z,99238.77
2018-11-14T07:31:23.712Z,99236.34
2018-11-14T07:33:55.276Z,99229.73
2018-11-14T07:36:26.814Z,99223.34
2018-11-14T07:38:58.553Z,99209.34
2018-11-14T07:41:33.875Z,99208.38
2018-11-14T07:44:06.557Z,99212.22
2018-11-14T07:46:38.677Z,99203.05
2018-11-14T07:49:10.575Z,99201.04
2018-11-14T07:51:42.456Z,99191.59
2018-11-14T07:54:14.171Z,99190.01
2018-11-14T07:56:45.752Z,99189.23
2018-11-14T07:59:17.751Z,99180.52
2018-11-14T08:01:49.178Z,99183.88
2018-11-14T08:04:20.920Z,99177.48
2018-11-14T08:06:52.487Z,99174.89
2018-11-14T08:09:24.241Z,99172.80
2018-11-14T08:11:56.045Z,99167.34
2018-11-14T08:14:28.542Z,99166.08
2018-11-14T08:17:00.335Z,99158.59
2018-11-14T08:19:32.631Z,99156.39
2018-11-14T08:22:04.209Z,99154.83
2018-11-14T08:24:35.778Z,99151.51
2018-11-14T08:27:07.585Z,99149.28
2018-11-14T08:29:39.249Z,99146.48
2018-11-14T08:32:10.702Z,99142.86
2018-11-14T08:34:42.496Z,99138.31
2018-11-14T08:37:14.233Z,99135.31
2018-11-14T08:39:46.986Z,99136.45
2018-11-14T08:42:18.541Z,99129.22
2018-11-14T08:44:50.747Z,99128.04
2018-11-14T08:47:22.354Z,99132.39
2018-11-14T08:49:54.162Z,99132.83
2018-11-14T08:52:25.601Z,99126.86
2018-11-14T08:54:57.249Z,99128.97
2018-11-14T08:57:28.833Z,99130.48
2018-11-14T09:00:00.931Z,99123.86
2018-11-14T09:02:33.603Z,99130.22
2018-11-14T09:05:05.538Z,99130.07
2018-11-14T09:07:37.452Z,99129.44
2018-11-14T09:10:12.781Z,99126.09
2018-11-14T09:12:46.612Z,99127.64
2018-11-14T09:15:20.352Z,99125.07
2018-11-14T09:17:52.074Z,99131.00
2018-11-14T09:20:26.353Z,99126.51
2018-11-14T09:22:58.189Z,99122.70
2018-11-14T09:25:31.830Z,99117.86
2018-11-14T09:28:04.186Z,99120.38
2018-11-14T09:30:35.821Z,99120.94
2018-11-14T09:33:07.686Z,99119.91
2018-11-14T09:35:39.611Z,99118.77
2018-11-14T09:38:11.530Z,99113.14
2018-11-14T09:40:43.590Z,99104.70
2018-11-14T09:43:17.325Z,99111.83
2018-11-14T09:45:49.721Z,99108.62
2018-11-14T09:48:22.388Z,99098.56
2018-11-14T09:50:54.373Z,99101.84
2018-11-14T09:53:26.093Z,99091.23
2018-11-14T09:55:59.103Z,99096.95
2018-11-14T09:58:30.789Z,99101.23
2018-11-14T10:01:03.256Z,99094.39
2018-11-14T10:03:35.051Z,99097.05
2018-11-14T10:06:07.209Z,99100.23
2018-11-14T10:08:38.811Z,99101.28
2018-11-14T10:11:10.767Z,99101.64
2018-11-14T10:13:43.379Z,99096.34
2018-11-14T10:16:15.487Z,99101.34
2018-11-14T10:18:47.136Z,99100.24
2018-11-14T10:21:20.432Z,99104.51
2018-11-14T10:23:52.124Z,99101.22
2018-11-14T10:26:23.842Z,99100.64
2018-11-14T10:28:55.383Z,99109.64
2018-11-14T10:31:27.072Z,99111.27
2018-11-14T10:33:58.809Z,99112.38
2018-11-14T10:36:30.518Z,99109.78
2018-11-14T10:39:02.192Z,99118.43
2018-11-14T10:41:33.941Z,99112.98
2018-11-14T10:44:05.589Z,99114.61
2018-11-14T10:46:38.161Z,99120.17
2018-11-14T10:49:09.837Z,99120.03
2018-11-14T10:51:41.590Z,99124.16
2018-11-14T10:54:13.160Z,99126.09
2018-11-14T10:56:45.120Z,99122.48
2018-11-14T10:59:16.881Z,99130.78
2018-11-14T11:01:53.079Z,99142.77
2018-11-14T11:05:28.921Z,99137.75
2018-11-14T11:08:05.462Z,99142.48
2018-11-14T11:10:41.635Z,99137.96
2018-11-14T11:15:19.990Z,99142.42
2018-11-14T11:18:05.439Z,99141.23
2018-11-14T11:20:37.250Z,99145.61
2018-11-14T11:23:09.524Z,99146.87
2018-11-14T11:25:41.570Z,99143.17
2018-11-14T11:28:14.067Z,99147.10
2018-11-14T11:30:45.934Z,99156.16
2018-11-14T11:33:17.514Z,99151.82
2018-11-14T11:35:49.325Z,99157.13
2018-11-14T11:38:21.137Z,99150.50
2018-11-14T11:40:52.822Z,99152.66
2018-11-14T11:43:24.507Z,99155.44
2018-11-14T11:45:56.234Z,99161.13
2018-11-14T11:48:29.320Z,99155.00
2018-11-14T11:51:01.361Z,99164.17
2018-11-14T11:53:32.932Z,99170.50
2018-11-14T11:56:04.634Z,99173.14
2018-11-14T11:58:36.305Z,99166.56
2018-11-14T12:01:08.218Z,99168.85
2018-11-14T12:03:39.888Z,99165.66
2018-11-14T12:06:11.938Z,99169.21
2018-11-14T12:08:44.470Z,99171.47
2018-11-14T12:11:16.188Z,99177.70
2018-11-14T12:13:47.929Z,99174.05
2018-11-14T12:16:19.782Z,99180.91
2018-11-14T12:18:51.802Z,99181.27
2018-11-14T12:21:23.432Z,99183.91
2018-11-14T12:23:57.447Z,99186.92
2018-11-14T12:26:29.521Z,99186.30
2018-11-14T12:29:01.472Z,99191.44
2018-11-14T12:31:34.249Z,99198.16
2018-11-14T12:34:06.599Z,99192.86
2018-11-14T12:36:38.403Z,99192.37
2018-11-14T12:39:12.139Z,99193.73
2018-11-14T12:41:43.865Z,99195.65
2018-11-14T12:44:15.535Z,99204.34
2018-11-14T12:46:47.194Z,99205.33
2018-11-14T12:49:19.197Z,99203.59
2018-11-14T12:51:50.801Z,99205.92
2018-11-14T12:54:22.305Z,99205.00
2018-11-14T12:56:54.218Z,99210.73
2018-11-14T12:59:26.256Z,99207.90
2018-11-14T13:01:58.717Z,99220.09
2018-11-14T13:04:32.613Z,99225.19
2018-11-14T13:07:06.186Z,99234.31
2018-11-14T13:09:38.837Z,99231.63
2018-11-14T13:12:10.839Z,99225.84
2018-11-14T13:14:42.573Z,99234.36
2018-11-14T13:17:14.238Z,99237.19
2018-11-14T13:19:46.490Z,99246.89
2018-11-14T13:22:19.576Z,99245.30
2018-11-14T13:24:52.047Z,99263.94
2018-11-14T13:27:23.806Z,99267.82
2018-11-14T13:29:55.310Z,99271.91
2018-11-14T13:32:26.997Z,99272.12
2018-11-14T13:34:58.833Z,99287.92
2018-11-14T13:37:30.492Z,99290.02
2018-11-14T13:40:02.241Z,99293.39
2018-11-14T13:42:34.016Z,99296.20
2018-11-14T13:45:06.217Z,99305.85
2018-11-14T13:47:40.530Z,99313.94
2018-11-14T13:50:16.074Z,99322.10
2018-11-14T13:52:48.114Z,99325.89
2018-11-14T13:55:20.509Z,99325.02
2018-11-14T13:57:53.220Z,99329.75
2018-11-14T14:00:25.165Z,99336.66
2018-11-14T14:02:57.095Z,99332.84
2018-11-14T14:05:28.732Z,99339.93
2018-11-14T14:08:00.515Z,99340.48
2018-11-14T14:10:32.059Z,99347.21
2018-11-14T14:13:04.097Z,99347.84
2018-11-14T14:15:35.702Z,99342.58
2018-11-14T14:18:07.665Z,99354.13
2018-11-14T14:20:40.116Z,99352.09
2018-11-14T14:23:12.066Z,99361.45
2018-11-14T14:25:44.681Z,99360.95
2018-11-14T14:28:16.880Z,99372.55
2018-11-14T14:30:49.076Z,99381.28
2018-11-14T14:33:20.868Z,99379.86
2018-11-14T14:35:52.701Z,99385.20
2018-11-14T14:38:24.722Z,99383.91
2018-11-14T14:40:57.586Z,99383.25
2018-11-14T14:43:29.539Z,99379.43
2018-11-14T14:46:01.856Z,99385.53
2018-11-14T14:48:34.108Z,99382.30
2018-11-14T14:51:06.787Z,99378.45
2018-11-14T14:53:38.818Z,99376.13
2018-11-14T14:56:10.455Z,99374.27
2018-11-14T14:58:42.292Z,99382.63
2018-11-14T15:01:14.998Z,99381.33
2018-11-14T15:03:47.724Z,99390.80
2018-11-14T15:06:19.641Z,99395.17
2018-11-14T15:08:51.399Z,99395.73
2018-11-14T15:11:23.271Z,99401.38
2018-11-14T15:13:55.159Z,99401.95
2018-11-14T15:16:26.731Z,99396.37
2018-11-14T15:18:58.688Z,99400.54
2018-11-14T15:21:30.945Z,99401.16
2018-11-14T15:24:02.947Z,99408.81
2018-11-14T15:26:35.366Z,99401.38
2018-11-14T15:29:07.416Z,99401.30
2018-11-14T15:31:39.062Z,99403.92
2018-11-14T15:34:10.925Z,99399.81
2018-11-14T15:36:42.847Z,99402.95
2018-11-14T15:39:14.705Z,99401.63
2018-11-14T15:41:46.233Z,99401.89
2018-11-14T15:44:17.927Z,99404.42
2018-11-14T15:46:49.461Z,99398.48
2018-11-14T15:49:21.313Z,99405.84
2018-11-14T15:51:53.260Z,99405.11
2018-11-14T15:54:25.305Z,99402.84
2018-11-14T15:56:58.252Z,99402.50
2018-11-14T15:59:30.044Z,99400.76
2018-11-14T16:02:01.683Z,99398.59
2018-11-14T16:04:33.544Z,99399.02
2018-11-14T16:07:05.160Z,99398.08
2018-11-14T16:09:39.419Z,99394.05
2018-11-14T16:12:11.868Z,99396.18
2018-11-14T16:14:43.542Z,99389.13
2018-11-14T16:17:16.052Z,99392.11
2018-11-14T16:19:48.116Z,99395.22
2018-11-14T16:22:20.103Z,99395.73
2018-11-14T16:24:51.856Z,99400.45
2018-11-14T16:27:23.954Z,99396.39
2018-11-14T16:29:55.538Z,99393.45
2018-11-14T16:32:26.975Z,99395.64
2018-11-14T16:34:58.744Z,99398.84
2018-11-14T16:37:30.745Z,99390.00
2018-11-14T16:40:02.498Z,99388.78
2018-11-14T16:42:35.136Z,99392.16
2018-11-14T16:45:07.151Z,99396.86
2018-11-14T16:47:39.092Z,99391.30
2018-11-14T16:50:12.521Z,99394.53
2018-11-14T16:52:44.671Z,99398.64
2018-11-14T16:55:17.768Z,99396.95
2018-11-14T16:57:50.248Z,99399.56
2018-11-14T17:00:26.377Z,99392.88
2018-11-14T17:02:58.330Z,99393.86
2018-11-14T17:05:31.086Z,99404.34
2018-11-14T17:08:03.668Z,99396.16
2018-11-14T17:10:35.258Z,99399.37
2018-11-14T17:26:48.118Z,99378.13
2018-11-14T17:29:20.803Z,99385.03
2018-11-14T17:31:52.600Z,99384.36
2018-11-14T17:34:24.194Z,99381.52
2018-11-14T17:36:56.008Z,99386.52
2018-11-14T17:39:28.210Z,99385.67
2018-11-14T17:42:00.479Z,99384.30
2018-11-14T17:44:32.229Z,99383.35
2018-11-14T17:47:04.008Z,99381.52
2018-11-14T17:49:35.703Z,99385.95
2018-11-14T17:52:08.419Z,99381.01
2018-11-14T17:54:40.152Z,99383.31
2018-11-14T17:57:11.821Z,99378.29
2018-11-14T17:59:44.007Z,99375.66
2018-11-14T18:02:15.612Z,99376.92
2018-11-14T18:04:47.396Z,99383.14
2018-11-14T18:07:19.284Z,99384.68
2018-11-14T18:09:50.900Z,99378.73
2018-11-14T18:12:22.507Z,99378.19
2018-11-14T18:14:54.233Z,99375.02
2018-11-14T18:17:26.097Z,99376.20
2018-11-14T18:19:57.943Z,99378.36
2018-11-14T18:22:30.097Z,99376.23
2018-11-14T18:25:01.793Z,99364.84
2018-11-14T18:27:33.548Z,99371.91
2018-11-14T18:30:09.993Z,99375.02
2018-11-14T18:32:42.519Z,99379.86
2018-11-14T18:35:15.547Z,99373.10
2018-11-14T18:37:51.976Z,99387.25
2018-11-14T18:40:25.861Z,99392.05
2018-11-14T18:42:57.403Z,99384.20
2018-11-14T18:45:31.411Z,99379.35
2018-11-14T18:48:03.652Z,99373.69
2018-11-14T18:50:35.272Z,99370.48
2018-11-14T18:53:07.030Z,99372.02
2018-11-14T18:55:38.521Z,99371.89
2018-11-14T18:58:10.694Z,99375.28
2018-11-14T19:00:42.729Z,99383.19
2018-11-14T19:03:14.845Z,99384.49
2018-11-14T19:05:46.603Z,99378.77
2018-11-14T19:08:18.275Z,99379.33
2018-11-14T19:10:49.796Z,99377.16
2018-11-14T19:13:21.391Z,99382.34
2018-11-14T19:15:53.761Z,99379.34
2018-11-14T19:18:25.491Z,99377.53
2018-11-14T19:20:57.329Z,99384.34
2018-11-14T19:23:29.140Z,99382.14
2018-11-14T19:26:01.126Z,99388.44
2018-11-14T19:28:34.118Z,99385.56
2018-11-14T19:31:06.043Z,99379.41
2018-11-14T19:33:37.792Z,99384.78
2018-11-14T19:36:09.249Z,99377.05
2018-11-14T19:38:40.998Z,99379.44
2018-11-14T19:41:12.707Z,99379.44
2018-11-14T19:43:44.589Z,99366.11
2018-11-14T19:46:16.192Z,99368.12
2018-11-14T19:48:47.918Z,99369.82
2018-11-14T19:51:23.963Z,99373.50
2018-11-14T19:53:56.672Z,99376.23
2018-11-14T19:56:32.167Z,99377.73
2018-11-14T19:59:04.386Z,99367.86
2018-11-14T20:01:36.601Z,99371.06
2018-11-14T20:04:08.234Z,99375.45
2018-11-14T20:06:39.795Z,99375.92
2018-11-14T20:09:12.639Z,99381.73
2018-11-14T20:11:45.093Z,99390.18
2018-11-14T20:14:17.525Z,99383.47
2018-11-14T20:16:48.967Z,99382.81
2018-11-14T20:19:20.488Z,99392.48
2018-11-14T20:21:57.891Z,99388.34
2018-11-14T20:24:29.525Z,99383.56
2018-11-14T20:27:01.928Z,99386.92
2018-11-14T20:29:34.340Z,99382.70
2018-11-14T20:32:06.461Z,99385.73
2018-11-14T20:34:38.115Z,99386.06
2018-11-14T20:37:09.870Z,99382.59
2018-11-14T20:39:41.545Z,99395.78
2018-11-14T20:42:13.102Z,99401.50
2018-11-14T20:44:45.806Z,99402.25
2018-11-14T20:47:17.351Z,99421.84
2018-11-14T20:49:48.986Z,99433.52
2018-11-14T20:52:20.429Z,99436.48
2018-11-14T20:54:52.278Z,99443.88
2018-11-14T20:57:23.815Z,99436.94
2018-11-14T20:59:56.818Z,99444.67
2018-11-14T21:02:29.041Z,99453.70
2018-11-14T21:05:02.177Z,99461.02
2018-11-14T21:07:33.768Z,99452.48
2018-11-14T21:10:08.844Z,99431.48
2018-11-14T21:12:40.827Z,99433.66
2018-11-14T21:15:16.579Z,99430.00
2018-11-14T21:17:50.196Z,99433.36
2018-11-14T21:20:22.939Z,99447.53
2018-11-14T21:22:54.577Z,99442.41
2018-11-14T21:25:27.120Z,99442.61
2018-11-14T21:27:59.867Z,99440.38
2018-11-14T21:30:32.915Z,99436.00
2018-11-14T21:33:05.196Z,99427.05
2018-11-14T21:35:38.008Z,99423.24
2018-11-14T21:38:10.272Z,99427.97
2018-11-14T21:40:42.343Z,99433.22
2018-11-14T21:43:13.950Z,99438.81
2018-11-14T21:45:45.625Z,99436.29
2018-11-14T21:48:18.316Z,99433.02
2018-11-14T21:50:50.243Z,99436.66
2018-11-14T21:53:21.871Z,99447.41
2018-11-14T21:55:53.659Z,99445.47
2018-11-14T21:58:25.329Z,99448.77
2018-11-14T22:00:56.920Z,99443.30
2018-11-14T22:03:28.999Z,99440.73
2018-11-14T22:06:00.781Z,99429.48
2018-11-14T22:08:32.532Z,99430.33
2018-11-14T22:11:04.268Z,99437.85
2018-11-14T22:13:35.845Z,99440.64
2018-11-14T22:16:07.548Z,99439.69
2018-11-14T22:18:39.074Z,99434.12
2018-11-14T22:21:10.778Z,99430.25
2018-11-14T22:23:42.377Z,99426.26
2018-11-14T22:26:14.115Z,99424.70
2018-11-14T22:28:45.852Z,99426.39
2018-11-14T22:31:18.088Z,99432.60
2018-11-14T22:33:51.502Z,99421.58
2018-11-14T22:36:23.196Z,99416.50
2018-11-14T22:38:55.047Z,99417.84
2018-11-14T22:41:26.670Z,99420.00
2018-11-14T22:43:58.255Z,99420.63
2018-11-14T22:46:29.997Z,99419.86
2018-11-14T22:49:01.691Z,99420.61
2018-11-14T22:51:33.385Z,99407.55
2018-11-14T22:54:05.147Z,99413.66
2018-11-14T22:56:36.918Z,99410.19
2018-11-14T22:59:08.536Z,99411.45
2018-11-14T23:01:40.054Z,99412.66
2018-11-14T23:04:12.093Z,99406.44
2018-11-14T23:06:43.803Z,99409.19
2018-11-14T23:09:15.355Z,99413.45
2018-11-14T23:11:47.103Z,99411.78
2018-11-14T23:14:18.713Z,99424.95
2018-11-14T23:16:50.573Z,99427.53
2018-11-14T23:19:22.267Z,99440.35
2018-11-14T23:21:54.035Z,99435.51
2018-11-14T23:24:25.675Z,99440.31
2018-11-14T23:26:59.373Z,99437.00
2018-11-14T23:29:31.042Z,99440.15
2018-11-14T23:32:03.217Z,99438.36
2018-11-14T23:34:35.762Z,99443.55
2018-11-14T23:37:09.416Z,99438.69
2018-11-14T23:39:40.974Z,99443.29
2018-11-14T23:42:12.769Z,99442.13
2018-11-14T23:44:44.455Z,99443.10
2018-11-14T23:47:16.042Z,99447.98
2018-11-14T23:49:47.669Z,99446.86
2018-11-14T23:52:19.786Z,99452.40
2018-11-14T23:54:51.411Z,99453.72
2018-11-14T23:57:23.191Z,99451.31
2018-11-14T23:59:54.817Z,99453.03
